Time;durP1;ratioP1;P1;durP2;ratioP2;P2;SDS_P1;SDS_P2;PMS_P1;PMS_P2;Temp;Humidity;BMP_temperature;BMP_pressure;BME280_temperature;BME280_humidity;BME280_pressure;Samples;Min_cycle;Max_cycle;Signal;HPM_P1;HPM_P2
2023/03/06 00:00:17;;;;;;;;;;;;;;;21.63;21.09;97175.19;5032128;28;20000;-88
2023/03/06 00:02:43;;;;;;;;;;;;;;;22.44;20.33;97167.34;5031532;28;19917;-87
2023/03/06 00:05:09;;;;;;;;;;;;;;;22.87;19.66;97177.25;5026157;28;19953;-88
2023/03/06 00:07:35;;;;;;;;;;;;;;;23.12;19.31;97174.44;5031825;28;19921;-88
2023/03/06 00:10:01;;;;;;;;;;;;;;;22.61;19.63;97176.44;5031716;28;20373;-88
2023/03/06 00:12:27;;;;;;;;;;;;;;;22.27;19.85;97176.22;5029630;28;20257;-88
2023/03/06 00:14:53;;;;;;;;;;;;;;;22.02;20.35;97185.34;5023728;28;20365;-88
2023/03/06 00:17:19;;;;;;;;;;;;;;;21.73;20.60;97187.28;5043173;28;20304;-88
2023/03/06 00:19:45;;;;;;;;;;;;;;;20.91;21.53;97180.13;5018232;28;19921;-88
2023/03/06 00:22:13;;;;;;;;;;;;;;;21.48;21.27;97182.34;5010725;28;19925;-88
2023/03/06 00:24:40;;;;;;;;;;;;;;;22.45;20.27;97185.66;5029193;28;19921;-88
2023/03/06 00:27:06;;;;;;;;;;;;;;;21.90;20.43;97186.06;5026840;28;19964;-88
2023/03/06 00:29:32;;;;;;;;;;;;;;;16.34;27.49;97202.81;5024059;28;21001;-89
2023/03/06 00:31:58;;;;;;;;;;;;;;;16.25;27.88;97209.97;5033019;28;19991;-89
2023/03/06 00:34:24;;;;;;;;;;;;;;;15.99;28.08;97202.16;5029043;28;20393;-88
2023/03/06 00:36:51;;;;;;;;;;;;;;;15.23;29.28;97205.47;5026429;28;19922;-88
2023/03/06 00:39:17;;;;;;;;;;;;;;;15.66;28.78;97209.78;5020538;28;20373;-88
2023/03/06 00:41:43;;;;;;;;;;;;;;;15.71;28.33;97203.06;5025803;28;19928;-88
2023/03/06 00:44:09;;;;;;;;;;;;;;;17.20;26.35;97192.75;5031908;28;19921;-89
2023/03/06 00:46:35;;;;;;;;;;;;;;;19.31;24.30;97184.53;5029017;28;19921;-88
2023/03/06 00:49:01;;;;;;;;;;;;;;;20.62;21.81;97185.59;5016123;28;19975;-88
2023/03/06 00:51:27;;;;;;;;;;;;;;;21.40;21.59;97185.78;5016256;28;20258;-88
2023/03/06 00:53:53;;;;;;;;;;;;;;;22.27;20.45;97185.41;5030557;28;20404;-88
2023/03/06 00:56:20;;;;;;;;;;;;;;;22.89;20.04;97181.19;5034145;28;19971;-88
2023/03/06 00:58:46;;;;;;;;;;;;;;;23.35;19.19;97188.13;5026376;28;19931;-88
2023/03/06 01:01:12;;;;;;;;;;;;;;;23.40;19.18;97190.34;5021148;28;19925;-88
2023/03/06 01:03:38;;;;;;;;;;;;;;;23.31;18.95;97185.38;5021388;28;20287;-88
2023/03/06 01:06:04;;;;;;;;;;;;;;;23.39;19.32;97194.38;5030221;28;19925;-89
2023/03/06 01:08:30;;;;;;;;;;;;;;;23.57;19.29;97188.94;5024504;28;20412;-89
2023/03/06 01:10:56;;;;;;;;;;;;;;;23.71;19.29;97190.50;5031518;28;19964;-89
2023/03/06 01:13:23;;;;;;;;;;;;;;;23.84;19.27;97192.03;5028390;28;19917;-89
2023/03/06 01:15:49;;;;;;;;;;;;;;;23.89;19.01;97191.47;5028564;28;20028;-88
2023/03/06 01:18:15;;;;;;;;;;;;;;;23.94;19.18;97190.84;5024481;28;19917;-88
2023/03/06 01:20:41;;;;;;;;;;;;;;;23.76;18.97;97185.09;5005340;28;20331;-89
2023/03/06 01:23:07;;;;;;;;;;;;;;;23.67;19.33;97187.81;5029670;28;19921;-89
2023/03/06 01:25:33;;;;;;;;;;;;;;;23.67;19.67;97190.63;5024805;28;19921;-89
2023/03/06 01:27:59;;;;;;;;;;;;;;;23.77;19.54;97185.88;5025277;28;20060;-88
2023/03/06 01:30:25;;;;;;;;;;;;;;;23.79;19.65;97181.38;5025489;28;20373;-88
2023/03/06 01:32:51;;;;;;;;;;;;;;;23.74;19.53;97186.78;5026160;28;20004;-89
2023/03/06 01:35:17;;;;;;;;;;;;;;;24.09;19.50;97179.16;5027869;28;20031;-88
2023/03/06 01:37:43;;;;;;;;;;;;;;;24.20;19.04;97179.56;5027810;28;19921;-89
2023/03/06 01:40:11;;;;;;;;;;;;;;;24.14;19.48;97176.56;5030879;28;19924;-88
2023/03/06 01:42:37;;;;;;;;;;;;;;;24.09;19.41;97174.34;5024099;28;19925;-88
2023/03/06 01:45:05;;;;;;;;;;;;;;;24.13;19.17;97171.41;5037732;28;19925;-88
2023/03/06 01:47:31;;;;;;;;;;;;;;;24.11;19.21;97166.25;5017988;28;20284;-88
2023/03/06 01:49:59;;;;;;;;;;;;;;;24.07;19.26;97164.81;5030178;28;19917;-88
2023/03/06 01:52:27;;;;;;;;;;;;;;;23.96;18.99;97165.97;5002529;28;19971;-88
2023/03/06 01:54:56;;;;;;;;;;;;;;;23.62;19.26;97165.19;5031080;28;19924;-89
2023/03/06 01:57:28;;;;;;;;;;;;;;;23.48;19.32;97171.28;5027376;28;20295;-88
2023/03/06 02:00:06;;;;;;;;;;;;;;;23.48;19.92;97158.03;5032765;28;19921;-89
2023/03/06 02:02:32;;;;;;;;;;;;;;;23.49;19.69;97159.63;5012137;28;20430;-88
2023/03/06 02:05:00;;;;;;;;;;;;;;;23.62;19.78;97163.16;5029490;28;20059;-89
2023/03/06 02:07:27;;;;;;;;;;;;;;;23.68;19.37;97154.97;5018263;28;19928;-89
2023/03/06 02:09:53;;;;;;;;;;;;;;;23.26;19.80;97157.19;5035734;28;19936;-89
2023/03/06 02:12:20;;;;;;;;;;;;;;;23.27;19.57;97158.72;5029771;28;19921;-89
2023/03/06 02:14:46;;;;;;;;;;;;;;;22.52;19.87;97153.94;5035020;28;19918;-88
2023/03/06 02:17:14;;;;;;;;;;;;;;;22.50;20.74;97162.75;5026290;28;20475;-89
2023/03/06 02:19:54;;;;;;;;;;;;;;;22.77;20.53;97158.78;5029221;28;19914;-89
2023/03/06 02:22:21;;;;;;;;;;;;;;;22.55;19.86;97155.81;5028706;28;19921;-89
2023/03/06 02:24:47;;;;;;;;;;;;;;;22.75;20.12;97152.84;5026170;28;19921;-89
2023/03/06 02:27:14;;;;;;;;;;;;;;;22.63;19.70;97146.81;5026356;28;19928;-89
2023/03/06 02:29:40;;;;;;;;;;;;;;;22.69;20.34;97150.59;5026281;28;20027;-89
2023/03/06 02:32:06;;;;;;;;;;;;;;;22.90;20.09;97148.34;5028870;28;20286;-89
2023/03/06 02:34:38;;;;;;;;;;;;;;;22.96;19.87;97147.38;5030664;28;20304;-89
2023/03/06 02:37:07;;;;;;;;;;;;;;;23.08;19.21;97148.59;5023663;28;19931;-89
2023/03/06 02:39:37;;;;;;;;;;;;;;;22.98;19.64;97152.50;5027872;28;19974;-89
2023/03/06 02:42:03;;;;;;;;;;;;;;;22.97;19.98;97148.13;5035600;28;19921;-89
2023/03/06 02:44:30;;;;;;;;;;;;;;;23.01;19.48;97146.00;5050465;28;19920;-89
2023/03/06 02:46:56;;;;;;;;;;;;;;;23.07;19.58;97147.00;5033796;28;20349;-89
2023/03/06 02:49:22;;;;;;;;;;;;;;;23.08;19.49;97142.97;5016889;28;19925;-89
2023/03/06 02:51:48;;;;;;;;;;;;;;;23.07;19.28;97145.00;5026672;28;20385;-89
2023/03/06 02:54:17;;;;;;;;;;;;;;;23.08;19.15;97140.19;5025369;28;19921;-89
2023/03/06 02:56:43;;;;;;;;;;;;;;;22.98;19.23;97139.28;5036214;28;19921;-90
2023/03/06 02:59:09;;;;;;;;;;;;;;;23.01;19.40;97146.00;5033134;28;20365;-90
2023/03/06 03:01:35;;;;;;;;;;;;;;;23.00;19.50;97144.44;5033895;28;19921;-90
2023/03/06 03:04:02;;;;;;;;;;;;;;;22.99;19.70;97134.47;5036494;28;20404;-89
2023/03/06 03:06:28;;;;;;;;;;;;;;;22.66;19.61;97133.94;5028603;28;19929;-90
2023/03/06 03:08:54;;;;;;;;;;;;;;;22.25;19.93;97129.16;5032368;28;19921;-90
2023/03/06 03:11:20;;;;;;;;;;;;;;;21.97;20.51;97133.56;5034187;28;19932;-90
2023/03/06 03:13:46;;;;;;;;;;;;;;;22.22;20.27;97135.63;5035182;28;19939;-89
2023/03/06 03:16:14;;;;;;;;;;;;;;;22.42;20.13;97121.44;5012486;28;20068;-89
2023/03/06 03:18:40;;;;;;;;;;;;;;;22.69;19.43;97131.00;5029753;28;19936;-89
2023/03/06 03:21:07;;;;;;;;;;;;;;;22.82;19.69;97139.41;5033912;28;19921;-90
2023/03/06 03:23:33;;;;;;;;;;;;;;;22.45;19.95;97128.97;5032502;28;20293;-90
2023/03/06 03:26:10;;;;;;;;;;;;;;;22.15;20.15;97130.22;5025968;28;19921;-89
2023/03/06 03:28:36;;;;;;;;;;;;;;;22.27;20.30;97132.28;5021097;28;20365;-90
2023/03/06 03:31:06;;;;;;;;;;;;;;;22.50;20.06;97122.78;5031230;28;20004;-90
2023/03/06 03:33:33;;;;;;;;;;;;;;;22.02;20.40;97126.63;5031299;28;19921;-90
2023/03/06 03:35:59;;;;;;;;;;;;;;;22.14;20.42;97116.72;5046739;28;20388;-90
2023/03/06 03:38:25;;;;;;;;;;;;;;;22.23;20.05;97114.03;5035912;28;20331;-90
2023/03/06 03:40:52;;;;;;;;;;;;;;;22.16;20.53;97105.88;5029351;28;20288;-90
2023/03/06 03:43:18;;;;;;;;;;;;;;;22.42;19.85;97119.44;5030031;28;20324;-90
2023/03/06 03:45:44;;;;;;;;;;;;;;;22.67;20.19;97116.69;5027796;28;20485;-90
2023/03/06 03:48:10;;;;;;;;;;;;;;;22.95;19.99;97117.00;5030291;28;19987;-89
2023/03/06 03:50:36;;;;;;;;;;;;;;;23.14;19.66;97110.38;5031521;28;19974;-90
2023/03/06 03:53:02;;;;;;;;;;;;;;;23.13;19.59;97117.97;5031000;28;20186;-90
2023/03/06 03:55:28;;;;;;;;;;;;;;;23.00;19.66;97111.63;5015214;28;20046;-90
2023/03/06 03:57:54;;;;;;;;;;;;;;;22.99;19.82;97101.66;5034017;28;20351;-90
2023/03/06 04:00:20;;;;;;;;;;;;;;;22.87;20.09;97112.88;5032295;28;20016;-89
2023/03/06 04:02:46;;;;;;;;;;;;;;;22.94;20.06;97109.84;5030753;28;20006;-89
2023/03/06 04:05:13;;;;;;;;;;;;;;;22.91;19.95;97114.31;5026903;28;20293;-89
2023/03/06 04:07:40;;;;;;;;;;;;;;;22.95;19.67;97111.41;5031127;28;19935;-90
2023/03/06 04:10:07;;;;;;;;;;;;;;;22.73;20.29;97113.34;5010450;28;20381;-89
2023/03/06 04:12:34;;;;;;;;;;;;;;;22.70;20.17;97106.63;5029554;28;19921;-89
2023/03/06 04:15:00;;;;;;;;;;;;;;;22.96;19.68;97101.78;5013615;28;19921;-89
2023/03/06 04:17:26;;;;;;;;;;;;;;;23.10;19.73;97095.72;5031424;28;19936;-89
2023/03/06 04:19:52;;;;;;;;;;;;;;;23.06;19.50;97092.22;5031154;28;19925;-89
2023/03/06 04:22:18;;;;;;;;;;;;;;;22.83;19.94;97101.78;5032617;28;19929;-88
2023/03/06 04:24:47;;;;;;;;;;;;;;;22.04;20.29;97099.03;5028428;28;19920;-89
2023/03/06 04:27:13;;;;;;;;;;;;;;;21.71;21.18;97101.13;5028733;28;19921;-89
2023/03/06 04:29:39;;;;;;;;;;;;;;;22.11;21.12;97095.22;5027774;28;20016;-89
2023/03/06 04:32:05;;;;;;;;;;;;;;;22.60;20.73;97097.31;5030301;28;20008;-89
2023/03/06 04:34:31;;;;;;;;;;;;;;;22.73;19.88;97093.75;5031486;28;19960;-89
2023/03/06 04:36:57;;;;;;;;;;;;;;;22.61;20.05;97092.53;5032224;28;20384;-88
2023/03/06 04:39:23;;;;;;;;;;;;;;;22.20;20.17;97090.53;5027828;28;19929;-88
2023/03/06 04:41:49;;;;;;;;;;;;;;;21.96;20.49;97095.63;5031891;28;19954;-88
2023/03/06 04:44:15;;;;;;;;;;;;;;;20.89;21.69;97087.72;5029546;28;19925;-88
2023/03/06 04:46:41;;;;;;;;;;;;;;;20.55;22.10;97099.31;5033034;28;20296;-88
2023/03/06 04:49:07;;;;;;;;;;;;;;;21.17;22.43;97089.81;5027528;28;19932;-88
2023/03/06 04:51:35;;;;;;;;;;;;;;;22.01;21.22;97085.91;5033212;28;19928;-88
2023/03/06 04:54:03;;;;;;;;;;;;;;;22.55;20.42;97086.66;5019710;28;20020;-87
2023/03/06 04:56:29;;;;;;;;;;;;;;;23.00;20.35;97083.63;5025996;28;19949;-87
2023/03/06 04:58:56;;;;;;;;;;;;;;;23.31;19.97;97086.59;5025401;28;20055;-88
2023/03/06 05:01:22;;;;;;;;;;;;;;;23.34;19.49;97086.47;5017942;28;19928;-88
2023/03/06 05:03:48;;;;;;;;;;;;;;;23.38;19.23;97081.53;5016465;28;19917;-88
2023/03/06 05:06:14;;;;;;;;;;;;;;;22.95;19.74;97080.59;5027910;28;20333;-89
2023/03/06 05:08:40;;;;;;;;;;;;;;;22.40;21.02;97073.56;5033352;28;19932;-87
2023/03/06 05:11:06;;;;;;;;;;;;;;;22.72;20.80;97078.19;5032197;28;19924;-88
2023/03/06 05:13:32;;;;;;;;;;;;;;;23.16;20.04;97074.28;5033786;28;19925;-88
2023/03/06 05:16:02;;;;;;;;;;;;;;;22.90;20.39;97083.97;5027682;28;20649;-87
2023/03/06 05:18:29;;;;;;;;;;;;;;;23.02;20.38;97088.78;5025795;28;19929;-88
2023/03/06 05:20:58;;;;;;;;;;;;;;;23.18;20.59;97083.81;5019435;28;19922;-88
2023/03/06 05:23:25;;;;;;;;;;;;;;;23.39;19.55;97079.50;5030399;28;19925;-87
2023/03/06 05:25:51;;;;;;;;;;;;;;;23.62;19.60;97086.75;5028642;28;19965;-87
2023/03/06 05:28:17;;;;;;;;;;;;;;;23.72;19.67;97085.56;5020749;28;20027;-88
2023/03/06 05:30:43;;;;;;;;;;;;;;;23.22;19.38;97092.09;5021809;28;19925;-87
2023/03/06 05:33:09;;;;;;;;;;;;;;;22.63;19.89;97090.84;5027209;28;20012;-91
2023/03/06 05:35:35;;;;;;;;;;;;;;;22.28;20.67;97085.53;5027465;28;20484;-89
2023/03/06 05:38:01;;;;;;;;;;;;;;;22.28;21.11;97086.31;5029094;28;19927;-88
2023/03/06 05:40:27;;;;;;;;;;;;;;;22.74;20.18;97084.88;5023555;28;20285;-86
2023/03/06 05:42:53;;;;;;;;;;;;;;;22.83;20.16;97082.19;5023210;28;19926;-86
2023/03/06 05:45:19;;;;;;;;;;;;;;;23.17;19.71;97096.25;5025485;28;19950;-86
2023/03/06 05:47:45;;;;;;;;;;;;;;;23.47;19.38;97088.47;5029989;28;20007;-86
2023/03/06 05:50:12;;;;;;;;;;;;;;;22.55;19.94;97095.06;5032014;28;19924;-86
2023/03/06 05:52:39;;;;;;;;;;;;;;;22.28;20.85;97091.91;5023252;28;19948;-86
2023/03/06 05:55:05;;;;;;;;;;;;;;;22.60;20.37;97097.31;5032701;28;19955;-87
2023/03/06 05:57:31;;;;;;;;;;;;;;;22.77;20.94;97086.00;5021792;28;19932;-86
2023/03/06 05:59:57;;;;;;;;;;;;;;;23.19;19.84;97084.59;5032611;28;19928;-86
2023/03/06 06:02:23;;;;;;;;;;;;;;;23.04;19.79;97084.28;5032432;28;19921;-86
2023/03/06 06:04:49;;;;;;;;;;;;;;;23.13;20.57;97086.38;5029699;28;20460;-86
2023/03/06 06:07:15;;;;;;;;;;;;;;;23.46;19.66;97084.88;5028205;28;19928;-87
2023/03/06 06:09:44;;;;;;;;;;;;;;;23.71;19.85;97078.41;5031108;28;19928;-87
2023/03/06 06:12:10;;;;;;;;;;;;;;;23.87;19.50;97089.41;5025432;28;19928;-86
2023/03/06 06:14:36;;;;;;;;;;;;;;;24.05;19.34;97095.94;5030819;28;19921;-86
2023/03/06 06:17:02;;;;;;;;;;;;;;;24.24;19.25;97091.25;5026157;28;19931;-86
2023/03/06 06:19:29;;;;;;;;;;;;;;;24.38;19.41;97078.69;5012478;28;19956;-87
2023/03/06 06:21:55;;;;;;;;;;;;;;;24.52;18.94;97073.31;5032584;28;19921;-86
2023/03/06 06:24:22;;;;;;;;;;;;;;;24.50;19.06;97084.22;5037483;28;19921;-86
2023/03/06 06:26:49;;;;;;;;;;;;;;;23.43;19.60;97088.59;5026374;28;19917;-86
2023/03/06 06:29:16;;;;;;;;;;;;;;;22.85;21.06;97096.53;5031891;28;19970;-86
2023/03/06 06:31:42;;;;;;;;;;;;;;;23.21;20.82;97091.31;5036053;28;19921;-86
2023/03/06 06:34:09;;;;;;;;;;;;;;;23.59;19.67;97087.63;5019746;28;19921;-86
2023/03/06 06:36:35;;;;;;;;;;;;;;;23.72;20.04;97099.56;5031396;28;19921;-86
2023/03/06 06:39:02;;;;;;;;;;;;;;;23.77;20.09;97093.38;5033169;28;19987;-86
2023/03/06 06:41:28;;;;;;;;;;;;;;;23.93;20.18;97099.59;5031558;28;20011;-87
2023/03/06 06:43:54;;;;;;;;;;;;;;;24.14;19.80;97097.25;5030882;28;19925;-87
2023/03/06 06:46:20;;;;;;;;;;;;;;;24.22;19.88;97090.94;5035400;28;19920;-87
2023/03/06 06:48:48;;;;;;;;;;;;;;;23.90;19.69;97088.47;5036959;28;19928;-87
2023/03/06 06:51:14;;;;;;;;;;;;;;;23.97;19.83;97093.81;5030619;28;19921;-88
2023/03/06 06:53:40;;;;;;;;;;;;;;;23.90;19.77;97092.06;5030162;28;19921;-87
2023/03/06 06:56:06;;;;;;;;;;;;;;;24.15;19.95;97082.78;5034468;28;20300;-87
2023/03/06 06:58:32;;;;;;;;;;;;;;;24.38;19.80;97087.09;5029416;28;20413;-87
2023/03/06 07:01:09;;;;;;;;;;;;;;;24.51;19.60;97082.16;5034862;28;20393;-87
2023/03/06 07:03:35;;;;;;;;;;;;;;;24.27;19.74;97084.69;5034613;28;20392;-87
2023/03/06 07:06:01;;;;;;;;;;;;;;;23.90;19.31;97091.28;5034968;28;20392;-86
2023/03/06 07:08:27;;;;;;;;;;;;;;;24.11;20.81;97087.72;5030418;28;19924;-87
2023/03/06 07:10:53;;;;;;;;;;;;;;;24.40;20.47;97079.78;5035818;28;19921;-86
2023/03/06 07:13:19;;;;;;;;;;;;;;;24.83;20.34;97081.72;5026030;28;20023;-87
2023/03/06 07:15:46;;;;;;;;;;;;;;;24.86;20.01;97071.56;5029851;28;20012;-87
2023/03/06 07:18:12;;;;;;;;;;;;;;;25.14;20.26;97073.97;5035946;28;19925;-87
2023/03/06 07:20:38;;;;;;;;;;;;;;;25.33;19.89;97066.38;5030413;28;19917;-87
2023/03/06 07:23:06;;;;;;;;;;;;;;;25.40;20.06;97071.69;5031726;28;19921;-86
2023/03/06 07:25:32;;;;;;;;;;;;;;;25.39;19.94;97081.38;5030444;28;19968;-86
2023/03/06 07:27:58;;;;;;;;;;;;;;;25.58;19.55;97071.72;5034882;28;19925;-88
2023/03/06 07:30:24;;;;;;;;;;;;;;;24.99;19.68;97075.06;5034356;28;19932;-88
2023/03/06 07:32:51;;;;;;;;;;;;;;;24.62;19.39;97079.75;5043895;28;20016;-86
2023/03/06 07:35:18;;;;;;;;;;;;;;;24.22;19.91;97090.94;5033204;28;20288;-87
2023/03/06 07:37:44;;;;;;;;;;;;;;;24.44;20.58;97083.22;5034995;28;19921;-86
2023/03/06 07:40:11;;;;;;;;;;;;;;;24.83;20.56;97087.34;5031365;28;19931;-87
2023/03/06 07:42:37;;;;;;;;;;;;;;;25.36;20.68;97087.91;5051000;28;19925;-87
2023/03/06 07:45:03;;;;;;;;;;;;;;;24.65;18.54;97090.03;5039992;28;20019;-88
2023/03/06 07:47:29;;;;;;;;;;;;;;;24.36;19.78;97095.19;5046030;28;19927;-89
2023/03/06 07:49:57;;;;;;;;;;;;;;;24.83;20.42;97090.16;5023065;28;19921;-92
2023/03/06 07:52:23;;;;;;;;;;;;;;;24.64;19.19;97092.03;5024741;28;19925;-91
2023/03/06 07:54:49;;;;;;;;;;;;;;;24.94;19.55;97098.91;5028920;28;19922;-90
2023/03/06 07:57:15;;;;;;;;;;;;;;;25.14;19.59;97095.66;5033751;28;19948;-89
2023/03/06 07:59:41;;;;;;;;;;;;;;;25.38;19.70;97097.44;5015208;28;19929;-89
2023/03/06 08:02:09;;;;;;;;;;;;;;;25.73;19.11;97088.75;5034465;28;19917;-89
2023/03/06 08:04:35;;;;;;;;;;;;;;;25.89;19.90;97094.03;5034127;28;19940;-89
2023/03/06 08:07:02;;;;;;;;;;;;;;;26.29;19.81;97091.81;5034965;28;19989;-88
2023/03/06 08:09:28;;;;;;;;;;;;;;;26.53;19.47;97080.66;5033803;28;20011;-87
2023/03/06 08:11:54;;;;;;;;;;;;;;;26.20;18.97;97093.88;5030732;28;19945;-88
2023/03/06 08:14:20;;;;;;;;;;;;;;;26.52;19.70;97099.56;5022692;28;19940;-89
2023/03/06 08:16:47;;;;;;;;;;;;;;;26.61;19.68;97090.31;5028097;28;19922;-88
2023/03/06 08:19:14;;;;;;;;;;;;;;;26.62;18.80;97089.06;5034669;28;20008;-89
2023/03/06 08:21:40;;;;;;;;;;;;;;;26.53;19.27;97087.06;5026788;28;19928;-88
2023/03/06 08:24:06;;;;;;;;;;;;;;;26.69;19.42;97085.91;5024162;28;19953;-88
2023/03/06 08:26:32;;;;;;;;;;;;;;;26.52;19.28;97088.31;5035046;28;19971;-88
2023/03/06 08:29:00;;;;;;;;;;;;;;;25.77;19.64;97092.16;5034388;28;19925;-88
2023/03/06 08:31:29;;;;;;;;;;;;;;;25.87;18.96;97086.09;5032694;28;19929;-89
2023/03/06 08:33:56;;;;;;;;;;;;;;;25.88;18.74;97087.63;5034370;28;19925;-90
2023/03/06 08:36:22;;;;;;;;;;;;;;;26.18;19.41;97090.75;5016216;28;19925;-87
2023/03/06 08:38:48;;;;;;;;;;;;;;;25.87;19.16;97088.09;5034000;28;19930;-87
2023/03/06 08:41:14;;;;;;;;;;;;;;;25.74;18.59;97093.13;5034764;28;19924;-86
2023/03/06 08:43:40;;;;;;;;;;;;;;;25.61;19.08;97086.84;5033371;28;19917;-86
2023/03/06 08:46:06;;;;;;;;;;;;;;;25.40;19.26;97092.13;5032429;28;20055;-87
2023/03/06 08:48:32;;;;;;;;;;;;;;;25.54;19.16;97090.75;5038600;28;19968;-87
2023/03/06 08:50:58;;;;;;;;;;;;;;;25.30;19.70;97095.38;5036104;28;19928;-86
2023/03/06 08:53:24;;;;;;;;;;;;;;;25.80;17.87;97082.78;5034620;28;19933;-86
2023/03/06 08:55:50;;;;;;;;;;;;;;;25.05;17.76;97090.81;5027116;28;19960;-90
2023/03/06 08:58:16;;;;;;;;;;;;;;;24.89;18.89;97093.09;5029154;28;20392;-88
2023/03/06 09:00:43;;;;;;;;;;;;;;;24.88;18.30;97097.94;5029803;28;19928;-91
2023/03/06 09:03:09;;;;;;;;;;;;;;;24.69;18.87;97097.06;5024854;28;19952;-87
2023/03/06 09:05:35;;;;;;;;;;;;;;;24.38;18.97;97092.72;5011887;28;19921;-87
2023/03/06 09:08:01;;;;;;;;;;;;;;;24.74;19.11;97090.84;5032661;28;20431;-87
2023/03/06 09:10:27;;;;;;;;;;;;;;;25.08;18.72;97091.91;5030757;28;20376;-87
2023/03/06 09:12:53;;;;;;;;;;;;;;;25.48;17.86;97089.84;5013777;28;19967;-88
2023/03/06 09:15:20;;;;;;;;;;;;;;;25.59;18.14;97089.34;5029302;28;19924;-87
2023/03/06 09:17:46;;;;;;;;;;;;;;;24.67;18.00;97096.75;5033115;28;19928;-87
2023/03/06 09:20:13;;;;;;;;;;;;;;;23.67;19.46;97091.75;5032216;28;19932;-87
2023/03/06 09:22:41;;;;;;;;;;;;;;;24.47;17.72;97093.53;5030970;28;19991;-87
2023/03/06 09:25:08;;;;;;;;;;;;;;;24.98;18.44;97104.38;5032014;28;19921;-87
2023/03/06 09:27:34;;;;;;;;;;;;;;;24.63;19.43;97089.72;5031218;28;20510;-88
2023/03/06 09:30:00;;;;;;;;;;;;;;;25.27;18.07;97101.97;5022245;28;19924;-88
2023/03/06 09:32:26;;;;;;;;;;;;;;;24.08;18.76;97111.09;5027288;28;19936;-87
2023/03/06 09:34:52;;;;;;;;;;;;;;;24.68;18.73;97100.34;5025305;28;19925;-88
2023/03/06 09:37:18;;;;;;;;;;;;;;;24.46;17.99;97108.00;5032956;28;19921;-88
2023/03/06 09:39:44;;;;;;;;;;;;;;;24.60;18.89;97096.22;5032306;28;19916;-88
2023/03/06 09:42:14;;;;;;;;;;;;;;;23.94;18.35;97100.38;5033162;28;20337;-88
2023/03/06 09:44:43;;;;;;;;;;;;;;;23.33;19.46;97098.13;5014596;28;19929;-88
2023/03/06 09:47:28;;;;;;;;;;;;;;;23.76;18.66;97095.41;5032906;28;20340;-88
2023/03/06 09:50:09;;;;;;;;;;;;;;;22.80;19.49;97091.47;5027549;28;20403;-88
2023/03/06 09:52:38;;;;;;;;;;;;;;;23.00;19.74;97088.44;5033554;28;20381;-88
2023/03/06 09:55:07;;;;;;;;;;;;;;;23.55;18.82;97089.78;5033779;28;19987;-88
2023/03/06 09:57:40;;;;;;;;;;;;;;;22.99;20.02;97090.44;5031491;28;19936;-88
2023/03/06 10:00:18;;;;;;;;;;;;;;;22.61;19.26;97079.28;5033489;28;19927;-88
2023/03/06 10:02:44;;;;;;;;;;;;;;;23.40;19.32;97083.09;5033106;28;19921;-88
2023/03/06 10:05:20;;;;;;;;;;;;;;;23.43;18.40;97082.22;5015655;28;19917;-88
2023/03/06 10:07:52;;;;;;;;;;;;;;;22.87;19.72;97079.28;5033554;28;19917;-88
2023/03/06 10:10:21;;;;;;;;;;;;;;;23.07;19.28;97077.78;5021910;28;19955;-88
2023/03/06 10:13:09;;;;;;;;;;;;;;;22.89;20.70;97082.41;5013562;28;19941;-89
2023/03/06 10:15:40;;;;;;;;;;;;;;;22.88;20.88;97080.84;4995968;28;19964;-89
2023/03/06 10:18:06;;;;;;;;;;;;;;;22.59;21.90;97073.34;5029389;28;19967;-89
2023/03/06 10:20:58;;;;;;;;;;;;;;;22.32;20.17;97069.41;5034447;28;19913;-89
2023/03/06 10:23:27;;;;;;;;;;;;;;;22.52;19.77;97061.63;4995305;28;20435;-89
2023/03/06 10:26:00;;;;;;;;;;;;;;;22.93;19.77;97069.09;5011740;28;19948;-90
2023/03/06 10:28:26;;;;;;;;;;;;;;;24.10;19.34;97058.13;5014047;28;19965;-90
2023/03/06 10:31:06;;;;;;;;;;;;;;;24.48;19.33;97049.44;5011656;28;19983;-91
2023/03/06 10:33:41;;;;;;;;;;;;;;;23.59;19.05;97054.00;5010634;28;19960;-91
2023/03/06 10:36:11;;;;;;;;;;;;;;;23.50;18.99;97054.69;4995996;28;20290;-90
2023/03/06 10:38:37;;;;;;;;;;;;;;;22.29;22.34;97050.72;5011490;28;19917;-90
2023/03/06 10:41:15;;;;;;;;;;;;;;;23.25;19.56;97049.16;5008209;28;19941;-91
2023/03/06 10:44:04;;;;;;;;;;;;;;;23.78;20.19;97036.84;5013999;28;19949;-91
2023/03/06 10:46:35;;;;;;;;;;;;;;;23.61;18.78;97032.72;5013474;28;19921;-91
2023/03/06 10:49:03;;;;;;;;;;;;;;;25.01;18.93;97024.81;5010361;28;19934;-91
2023/03/06 10:51:29;;;;;;;;;;;;;;;25.57;17.19;97022.38;5013530;28;19980;-90
2023/03/06 10:54:15;;;;;;;;;;;;;;;26.30;18.06;97013.81;5013516;28;19941;-91
2023/03/06 10:56:42;;;;;;;;;;;;;;;26.66;16.82;97008.78;5002864;28;20370;-91
2023/03/06 10:59:20;;;;;;;;;;;;;;;26.56;16.04;97006.47;5012200;28;19925;-91
2023/03/06 11:01:47;;;;;;;;;;;;;;;22.09;23.64;97017.41;5016073;28;19917;-90
2023/03/06 11:04:13;;;;;;;;;;;;;;;22.70;20.47;97011.47;4999362;28;20277;-91
2023/03/06 11:06:39;;;;;;;;;;;;;;;21.10;23.95;97014.66;5015383;28;20377;-90
2023/03/06 11:09:14;;;;;;;;;;;;;;;20.21;24.54;97014.47;5003980;28;20408;-89
2023/03/06 11:11:40;;;;;;;;;;;;;;;21.35;24.92;97011.94;4997070;28;19965;-88
2023/03/06 11:14:13;;;;;;;;;;;;;;;19.46;25.08;97012.53;4997727;28;19979;-89
2023/03/06 11:16:39;;;;;;;;;;;;;;;20.70;22.40;97004.16;5000395;28;19929;-89
2023/03/06 11:19:17;;;;;;;;;;;;;;;21.18;23.71;96974.16;4997087;28;20385;-87
2023/03/06 11:21:57;;;;;;;;;;;;;;;21.90;22.60;96988.44;4991046;28;19936;-89
2023/03/06 11:24:23;;;;;;;;;;;;;;;22.66;19.30;96985.66;5035937;28;19921;-89
2023/03/06 11:26:58;;;;;;;;;;;;;;;23.15;19.29;96992.31;5036181;28;19920;-90
2023/03/06 11:29:42;;;;;;;;;;;;;;;21.21;21.75;96978.84;5018686;28;19932;-89
2023/03/06 11:32:08;;;;;;;;;;;;;;;21.06;24.39;96982.47;5033359;28;19920;-89
2023/03/06 11:35:03;;;;;;;;;;;;;;;22.52;21.54;96970.06;5034314;28;20396;-89
2023/03/06 11:37:32;;;;;;;;;;;;;;;24.13;21.63;96966.69;5021247;28;19921;-89
2023/03/06 11:39:58;;;;;;;;;;;;;;;24.37;18.79;96959.28;5032665;28;20059;-89
2023/03/06 11:42:48;;;;;;;;;;;;;;;23.96;19.65;96957.69;5036001;28;19917;-89
2023/03/06 11:45:27;;;;;;;;;;;;;;;25.30;19.21;96952.88;5017804;28;20011;-89
2023/03/06 11:48:00;;;;;;;;;;;;;;;22.66;22.44;96964.03;5047883;28;19928;-88
2023/03/06 11:50:30;;;;;;;;;;;;;;;22.61;19.96;96953.41;5055940;28;20331;-88
2023/03/06 11:52:57;;;;;;;;;;;;;;;23.95;19.07;96951.31;5055298;28;19917;-88
2023/03/06 11:55:32;;;;;;;;;;;;;;;23.55;19.04;96942.06;5034194;28;19925;-88
2023/03/06 11:58:21;;;;;;;;;;;;;;;23.79;20.84;96945.16;5028268;28;19965;-90
2023/03/06 12:00:50;;;;;;;;;;;;;;;25.89;18.93;96931.69;5002623;28;19920;-91
2023/03/06 12:03:19;;;;;;;;;;;;;;;26.67;18.25;96928.69;5027761;28;19975;-92
2023/03/06 12:05:51;;;;;;;;;;;;;;;24.91;18.70;96924.94;5025233;28;19930;-91
2023/03/06 12:08:23;;;;;;;;;;;;;;;23.81;21.31;96923.81;5025342;28;19953;-93
2023/03/06 12:10:51;;;;;;;;;;;;;;;23.06;23.37;96921.44;5002614;28;19921;-93
2023/03/06 12:13:17;;;;;;;;;;;;;;;23.33;21.28;96913.25;5019736;28;19944;-93
2023/03/06 12:15:46;;;;;;;;;;;;;;;22.87;20.27;96919.75;4999933;28;19928;-94
2023/03/06 12:18:31;;;;;;;;;;;;;;;23.48;19.07;96910.75;5033478;28;19921;-91
2023/03/06 12:21:02;;;;;;;;;;;;;;;24.07;19.27;96910.41;5030640;28;20382;-92
2023/03/06 12:23:28;;;;;;;;;;;;;;;24.20;18.41;96910.31;5052181;28;19921;-91
2023/03/06 12:25:59;;;;;;;;;;;;;;;23.35;20.45;96911.59;5030350;28;19966;-91
2023/03/06 12:28:30;;;;;;;;;;;;;;;24.51;20.83;96908.97;5021325;28;19929;-90
2023/03/06 12:30:56;;;;;;;;;;;;;;;24.52;18.42;96902.13;5008497;28;20403;-90
2023/03/06 12:33:36;;;;;;;;;;;;;;;25.00;18.98;96913.72;5027043;28;19921;-90
2023/03/06 12:36:23;;;;;;;;;;;;;;;23.64;19.41;96910.50;5030763;28;19925;-90
2023/03/06 12:38:50;;;;;;;;;;;;;;;23.34;20.44;96907.22;5012609;28;19929;-92
2023/03/06 12:41:19;;;;;;;;;;;;;;;23.70;19.43;96909.44;5021358;28;19928;-92
2023/03/06 12:43:54;;;;;;;;;;;;;;;24.90;18.53;96892.50;5024009;28;19920;-92
2023/03/06 12:46:21;;;;;;;;;;;;;;;22.25;22.60;96911.03;5025744;28;20023;-92
2023/03/06 12:49:06;;;;;;;;;;;;;;;22.96;19.69;96911.44;5018941;28;19920;-93
2023/03/06 12:51:33;;;;;;;;;;;;;;;23.32;20.55;96903.28;5024267;28;19921;-93